Port Heiden Airport


Codes: PAPH/PTH
Name: Port Heiden Airport
City: Port Heiden
Country: United States
Elevation: 95 ft.

Photos at Port Heiden Airport


   Photos courtesy of SpottingLog. You can add your own sightings and photos by signing up for a free trial today.



No photos found.

Weather at Port Heiden Airport


Time (UTC)DescriptionTempratureWindCloud coverageVisibilityPressureHumidity
21-Feb-2024 03:00Clear Sky0°C7 mph, S0%10000m996hPa86%
21-Feb-2024 06:00Few Clouds-1°C9 mph, SE16%10000m997hPa84%
21-Feb-2024 09:00Clear Sky-3°C11 mph, SE7%10000m998hPa80%
21-Feb-2024 12:00Scattered Clouds-2°C18 mph, SE45%10000m997hPa84%
21-Feb-2024 15:00Overcast Clouds2°C27 mph, SE100%10000m994hPa80%
21-Feb-2024 18:00Overcast Clouds2°C27 mph, SE100%10000m991hPa84%
21-Feb-2024 21:00Light Rain2°C18 mph, SW99%1731m991hPa98%
22-Feb-2024 00:00Snow1°C20 mph, SW99%10000m994hPa86%
22-Feb-2024 03:00Light Snow-0°C7 mph, SW100%10000m993hPa91%
22-Feb-2024 06:00Light Snow-3°C11 mph, W98%284m993hPa98%
22-Feb-2024 09:00Snow-1°C27 mph, SW98%10000m998hPa77%
22-Feb-2024 12:00Overcast Clouds-5°C11 mph, S85%10000m1000hPa77%
22-Feb-2024 15:00Overcast Clouds-4°C9 mph, S98%10000m1001hPa78%
22-Feb-2024 18:00Overcast Clouds-5°C11 mph, S85%10000m1002hPa80%
22-Feb-2024 21:00Overcast Clouds-1°C16 mph, S87%10000m1003hPa74%
23-Feb-2024 00:00Light Snow0°C25 mph, SW93%4361m1005hPa90%
23-Feb-2024 03:00Light Snow1°C29 mph, SW100%4986m1007hPa90%
23-Feb-2024 06:00Light Snow0°C22 mph, SW99%10000m1009hPa79%
23-Feb-2024 09:00Broken Clouds-3°C13 mph, S57%10000m1009hPa81%
23-Feb-2024 12:00Broken Clouds-2°C7 mph, S78%10000m1009hPa87%
23-Feb-2024 15:00Overcast Clouds-3°C4 mph, SE97%10000m1008hPa89%
23-Feb-2024 18:00Overcast Clouds-4°C4 mph, S99%2163m1009hPa94%
23-Feb-2024 21:00Light Snow-1°C9 mph, SW100%137m1010hPa99%
24-Feb-2024 00:00Light Snow-0°C13 mph, W100%10000m1011hPa92%
24-Feb-2024 03:00Light Snow-1°C16 mph, W100%10000m1013hPa81%
24-Feb-2024 06:00Light Snow-2°C11 mph, SW100%10000m1014hPa84%
24-Feb-2024 09:00Light Snow-2°C16 mph, SW100%6326m1014hPa87%
24-Feb-2024 12:00Light Snow-1°C20 mph, SW100%2499m1015hPa86%
24-Feb-2024 15:00Light Snow-1°C18 mph, W100%10000m1015hPa79%
24-Feb-2024 18:00Light Snow-2°C18 mph, W100%10000m1016hPa73%
24-Feb-2024 21:00Light Snow-1°C22 mph, W76%10000m1018hPa72%
25-Feb-2024 00:00Light Snow-1°C27 mph, W56%10000m1020hPa77%
25-Feb-2024 03:00Light Snow-2°C27 mph, W74%10000m1022hPa79%
25-Feb-2024 06:00Light Snow-2°C27 mph, NW87%10000m1025hPa75%
25-Feb-2024 09:00Overcast Clouds-3°C20 mph, NW100%10000m1027hPa77%
25-Feb-2024 12:00Overcast Clouds-3°C18 mph, NW100%10000m1028hPa79%
25-Feb-2024 15:00Overcast Clouds-4°C11 mph, W100%10000m1029hPa82%
25-Feb-2024 18:00Overcast Clouds-5°C4 mph, W100%10000m1028hPa84%
25-Feb-2024 21:00Overcast Clouds-3°C2 mph, S100%10000m1026hPa78%
26-Feb-2024 00:00Overcast Clouds-2°C7 mph, E96%10000m1023hPa74%